Time;durP1;ratioP1;P1;durP2;ratioP2;P2;SDS_P1;SDS_P2;PMS_P1;PMS_P2;Temp;Humidity;BMP_temperature;BMP_pressure;BME280_temperature;BME280_humidity;BME280_pressure;Samples;Min_cycle;Max_cycle;Signal;HPM_P1;HPM_P2
2023/01/09 00:00:40;;;;;;;3.00;1.47;;;7.00;99.90;;;;;;5092876;28;20170;-68
2023/01/09 00:03:05;;;;;;;1.30;1.20;;;7.00;99.90;;;;;;5092897;28;20184;-68
2023/01/09 00:05:31;;;;;;;2.70;1.33;;;7.00;99.90;;;;;;5092395;28;20168;-69
2023/01/09 00:07:57;;;;;;;1.87;1.50;;;7.00;99.90;;;;;;5092674;28;20685;-69
2023/01/09 00:10:22;;;;;;;1.97;1.70;;;7.00;99.90;;;;;;5092906;28;20179;-69
2023/01/09 00:12:48;;;;;;;2.47;1.60;;;7.10;99.90;;;;;;5091360;28;20211;-69
2023/01/09 00:15:14;;;;;;;1.87;1.47;;;7.00;99.90;;;;;;5094011;28;20198;-70
2023/01/09 00:17:40;;;;;;;2.80;1.40;;;7.10;99.90;;;;;;5096441;28;20225;-69
2023/01/09 00:20:08;;;;;;;1.87;1.30;;;7.10;99.90;;;;;;5095861;28;20628;-69
2023/01/09 00:22:34;;;;;;;3.50;1.70;;;7.10;99.90;;;;;;5096346;28;20184;-69
2023/01/09 00:25:00;;;;;;;2.67;1.60;;;7.10;99.90;;;;;;5096355;28;20271;-69
2023/01/09 00:27:25;;;;;;;3.57;1.40;;;7.10;99.90;;;;;;5096125;28;20199;-69
2023/01/09 00:29:51;;;;;;;2.87;1.57;;;7.10;99.90;;;;;;5096316;28;20176;-68
2023/01/09 00:32:19;;;;;;;3.90;1.47;;;7.00;99.90;;;;;;5096075;28;20199;-70
2023/01/09 00:34:44;;;;;;;1.33;1.23;;;7.00;99.90;;;;;;5095712;28;20732;-69
2023/01/09 00:37:12;;;;;;;2.77;1.70;;;7.10;99.90;;;;;;5096275;28;20172;-69
2023/01/09 00:39:39;;;;;;;2.33;1.43;;;7.00;99.90;;;;;;5096214;28;20244;-70
2023/01/09 00:42:08;;;;;;;3.27;1.70;;;7.00;99.90;;;;;;5094748;28;20172;-68
2023/01/09 00:44:40;;;;;;;4.20;1.60;;;6.90;99.90;;;;;;5095584;28;20224;-69
2023/01/09 00:47:13;;;;;;;3.17;2.00;;;6.90;99.90;;;;;;5096246;28;20207;-69
2023/01/09 00:49:39;;;;;;;3.77;1.73;;;6.90;99.90;;;;;;5095875;28;20163;-68
2023/01/09 00:52:08;;;;;;;3.63;1.37;;;6.90;99.90;;;;;;5095751;28;20225;-70
2023/01/09 00:54:34;;;;;;;2.20;1.50;;;6.90;99.90;;;;;;5095636;28;20649;-68
2023/01/09 00:57:00;;;;;;;2.40;1.57;;;6.90;99.90;;;;;;5095869;28;20251;-69
2023/01/09 00:59:26;;;;;;;1.70;1.60;;;6.90;99.90;;;;;;5095748;28;20241;-68
2023/01/09 01:01:52;;;;;;;1.70;1.40;;;6.90;99.90;;;;;;5095154;28;20243;-69
2023/01/09 01:09:46;;;;;;;1.67;1.57;;;6.90;99.90;;;;;;5095652;28;20257;-68
2023/01/09 01:12:11;;;;;;;4.47;1.80;;;6.80;99.90;;;;;;5095245;28;20208;-69
2023/01/09 01:14:38;;;;;;;4.07;1.50;;;6.80;99.90;;;;;;5094023;28;20206;-69
2023/01/09 01:17:05;;;;;;;1.90;1.50;;;6.80;99.90;;;;;;5095059;28;20229;-69
2023/01/09 01:19:30;;;;;;;2.03;1.47;;;6.80;99.90;;;;;;5094025;28;20550;-69
2023/01/09 01:21:57;;;;;;;2.37;1.57;;;6.90;99.90;;;;;;5095241;28;20172;-69
2023/01/09 01:24:22;;;;;;;2.67;1.50;;;6.80;99.90;;;;;;5095143;28;20166;-69
2023/01/09 01:26:48;;;;;;;2.70;1.40;;;6.80;99.90;;;;;;5094360;28;20176;-69
2023/01/09 01:29:14;;;;;;;1.83;1.53;;;6.70;99.90;;;;;;5095301;28;20168;-70
2023/01/09 01:31:39;;;;;;;4.03;1.83;;;6.70;99.90;;;;;;5094758;28;20671;-69
2023/01/09 01:34:05;;;;;;;2.23;1.30;;;6.70;99.90;;;;;;5095013;28;20208;-69
2023/01/09 01:36:31;;;;;;;6.43;1.53;;;6.80;99.90;;;;;;5094915;28;20624;-69
2023/01/09 01:38:57;;;;;;;1.90;1.43;;;6.70;99.90;;;;;;5094810;28;20175;-69
2023/01/09 01:41:28;;;;;;;3.53;1.63;;;6.70;99.90;;;;;;5094661;28;20172;-69
2023/01/09 01:44:03;;;;;;;6.07;1.73;;;6.70;99.90;;;;;;5094652;28;20226;-69
2023/01/09 01:46:30;;;;;;;4.20;1.53;;;6.70;99.90;;;;;;5094391;28;20639;-68
2023/01/09 01:49:09;;;;;;;4.13;1.73;;;6.70;99.90;;;;;;5094599;28;20229;-69
2023/01/09 01:51:43;;;;;;;5.80;1.40;;;6.70;99.90;;;;;;5094503;28;20186;-68
2023/01/09 01:54:14;;;;;;;3.03;1.13;;;6.60;99.90;;;;;;5094537;28;20584;-68
2023/01/09 01:56:44;;;;;;;1.50;1.30;;;6.60;99.90;;;;;;5094461;28;20259;-69
2023/01/09 01:59:19;;;;;;;2.80;1.70;;;6.60;99.90;;;;;;5094672;28;20183;-69
2023/01/09 02:01:49;;;;;;;3.20;1.40;;;6.60;99.90;;;;;;5093964;28;20175;-68
2023/01/09 02:04:15;;;;;;;3.77;1.43;;;6.70;99.90;;;;;;5094304;28;20271;-68
2023/01/09 02:06:42;;;;;;;4.00;1.37;;;6.70;99.90;;;;;;5094464;28;20601;-68
2023/01/09 02:09:08;;;;;;;2.83;1.30;;;6.70;99.90;;;;;;5094233;28;20198;-69
2023/01/09 02:11:34;;;;;;;4.30;0.97;;;6.80;99.90;;;;;;5094123;28;20207;-67
2023/01/09 02:14:00;;;;;;;4.87;1.37;;;6.90;99.90;;;;;;5094006;28;20363;-68
2023/01/09 02:16:38;;;;;;;2.47;1.23;;;7.00;99.90;;;;;;5093888;28;20172;-68
2023/01/09 02:19:40;;;;;;;3.87;1.40;;;7.10;99.90;;;;;;5094030;28;20229;-69
2023/01/09 02:22:12;;;;;;;3.13;1.57;;;7.20;99.90;;;;;;5094176;28;20182;-68
2023/01/09 02:25:03;;;;;;;5.53;1.20;;;7.30;99.90;;;;;;5094060;28;20172;-69
2023/01/09 02:27:55;;;;;;;5.33;1.40;;;7.30;99.90;;;;;;5093898;28;20184;-69
2023/01/09 02:30:50;;;;;;;2.67;1.40;;;7.30;99.90;;;;;;5093800;28;20266;-68
2023/01/09 02:33:32;;;;;;;6.57;1.50;;;7.40;99.90;;;;;;5093824;28;20200;-68
2023/01/09 02:36:20;;;;;;;2.53;1.33;;;7.40;99.90;;;;;;5093874;28;20651;-68
2023/01/09 02:38:56;;;;;;;4.17;1.30;;;7.50;99.90;;;;;;5092983;28;20160;-68
2023/01/09 02:42:17;;;;;;;5.93;1.60;;;7.50;99.90;;;;;;5093802;28;20168;-68
2023/01/09 02:44:43;;;;;;;2.90;1.50;;;7.50;99.90;;;;;;5010719;28;20233;-69
2023/01/09 02:47:14;;;;;;;3.73;1.40;;;7.50;99.90;;;;;;5011757;28;20179;-69
2023/01/09 02:49:42;;;;;;;4.37;1.60;;;7.50;99.90;;;;;;5011796;28;20202;-69
2023/01/09 02:52:13;;;;;;;2.83;1.40;;;7.60;99.90;;;;;;5011476;28;20269;-69
2023/01/09 02:54:41;;;;;;;5.00;1.50;;;7.70;99.90;;;;;;5011777;28;20531;-69
2023/01/09 02:58:05;;;;;;;5.27;1.33;;;7.70;99.90;;;;;;5011685;28;20175;-70
2023/01/09 03:01:06;;;;;;;7.20;1.47;;;7.80;99.90;;;;;;4961074;28;20193;-69
2023/01/09 03:03:45;;;;;;;4.40;1.53;;;7.80;99.90;;;;;;4934137;29;20215;-68
2023/01/09 03:06:19;;;;;;;5.27;1.77;;;7.70;99.90;;;;;;4934166;29;20346;-69
2023/01/09 03:08:51;;;;;;;4.80;1.50;;;7.80;99.90;;;;;;4934013;29;20256;-69
2023/01/09 03:11:16;;;;;;;4.33;1.30;;;7.80;99.90;;;;;;4933914;29;20260;-70
2023/01/09 03:13:46;;;;;;;2.97;1.67;;;7.80;99.90;;;;;;4933493;29;20371;-70
2023/01/09 03:16:19;;;;;;;4.60;1.67;;;7.80;99.90;;;;;;4933891;29;20263;-69
2023/01/09 03:18:45;;;;;;;4.90;1.30;;;7.80;99.90;;;;;;4998209;28;20313;-69
2023/01/09 03:21:12;;;;;;;4.43;1.50;;;7.80;99.90;;;;;;5031047;28;20648;-69
2023/01/09 03:23:47;;;;;;;3.10;1.33;;;7.90;99.90;;;;;;5031061;28;20181;-70
2023/01/09 03:26:13;;;;;;;2.20;1.20;;;7.90;99.90;;;;;;5031225;28;20247;-68
2023/01/09 03:28:39;;;;;;;4.87;1.60;;;7.90;99.90;;;;;;5030744;28;20217;-70
2023/01/09 03:31:04;;;;;;;2.43;1.10;;;7.80;99.90;;;;;;5031086;28;20265;-69
2023/01/09 03:33:30;;;;;;;3.63;1.53;;;7.80;99.90;;;;;;5030981;28;20643;-70
2023/01/09 03:35:56;;;;;;;8.00;1.70;;;7.80;99.90;;;;;;5014490;28;20170;-70
2023/01/09 03:38:21;;;;;;;4.23;1.40;;;7.70;99.90;;;;;;5084539;28;20180;-69
2023/01/09 03:40:47;;;;;;;3.17;1.40;;;7.80;99.90;;;;;;5092953;28;20171;-69
2023/01/09 03:43:12;;;;;;;4.17;1.40;;;7.80;99.90;;;;;;5092460;28;20694;-69
2023/01/09 03:45:38;;;;;;;6.03;1.60;;;7.80;99.90;;;;;;5093128;28;20169;-69
2023/01/09 03:48:04;;;;;;;5.97;1.70;;;7.90;99.90;;;;;;5093122;28;20179;-69
2023/01/09 03:50:30;;;;;;;6.30;1.60;;;7.80;99.90;;;;;;5093563;28;20168;-69
2023/01/09 03:52:55;;;;;;;5.30;1.50;;;7.80;99.90;;;;;;5096647;28;20736;-68
2023/01/09 03:55:21;;;;;;;4.63;1.60;;;7.80;99.90;;;;;;5096801;28;20209;-68
2023/01/09 03:57:47;;;;;;;8.83;1.67;;;7.90;99.90;;;;;;5096898;28;20195;-69
2023/01/09 04:00:13;;;;;;;8.67;1.53;;;7.90;99.90;;;;;;5096862;28;20186;-70
2023/01/09 04:02:39;;;;;;;6.73;1.83;;;7.90;99.90;;;;;;5096716;28;20271;-71
2023/01/09 04:05:05;;;;;;;9.13;1.73;;;8.00;99.90;;;;;;5096760;28;20236;-70
2023/01/09 04:07:31;;;;;;;5.00;1.80;;;8.10;99.90;;;;;;5096711;28;20207;-69
2023/01/09 04:09:56;;;;;;;5.97;1.63;;;8.10;99.90;;;;;;5096555;28;20573;-69
2023/01/09 04:12:22;;;;;;;4.83;1.70;;;8.10;99.90;;;;;;5096078;28;20674;-69
2023/01/09 04:14:47;;;;;;;6.87;1.77;;;8.10;99.90;;;;;;5096456;28;20188;-70
2023/01/09 04:17:15;;;;;;;6.63;1.73;;;8.10;99.90;;;;;;5096361;28;20607;-69
2023/01/09 04:19:41;;;;;;;5.87;2.20;;;8.10;99.90;;;;;;5095754;28;20252;-70
2023/01/09 04:22:06;;;;;;;7.17;1.70;;;8.10;99.90;;;;;;5096104;28;20175;-70
2023/01/09 04:24:32;;;;;;;5.67;1.80;;;8.10;99.90;;;;;;5096589;28;20510;-69
2023/01/09 04:26:58;;;;;;;8.17;1.73;;;8.10;99.90;;;;;;5095857;28;20657;-69
2023/01/09 04:29:24;;;;;;;6.03;1.90;;;8.10;99.90;;;;;;5096068;28;20160;-70
2023/01/09 04:31:49;;;;;;;8.63;1.93;;;8.20;99.90;;;;;;5096096;28;20267;-70
2023/01/09 04:34:15;;;;;;;9.40;2.30;;;8.20;99.90;;;;;;5095886;28;20207;-69
2023/01/09 04:36:41;;;;;;;5.73;2.10;;;8.20;99.90;;;;;;5095630;28;20171;-69
2023/01/09 04:39:08;;;;;;;8.43;1.80;;;8.30;99.90;;;;;;5096077;28;20710;-69
2023/01/09 04:41:48;;;;;;;6.57;2.00;;;8.30;99.90;;;;;;5095200;28;20168;-69
2023/01/09 04:44:25;;;;;;;6.27;2.10;;;8.30;99.90;;;;;;5095432;28;20293;-69
2023/01/09 04:46:51;;;;;;;12.57;2.30;;;8.30;99.90;;;;;;5095391;28;20175;-70
2023/01/09 04:49:17;;;;;;;5.17;2.03;;;8.30;99.90;;;;;;5095957;28;20509;-69
2023/01/09 04:51:42;;;;;;;8.50;1.97;;;8.30;99.90;;;;;;5095509;28;20170;-70
2023/01/09 04:54:08;;;;;;;4.33;1.63;;;8.30;99.90;;;;;;5094870;28;20663;-69
2023/01/09 04:56:34;;;;;;;6.00;2.13;;;8.30;99.90;;;;;;5095350;28;20168;-70
2023/01/09 04:59:00;;;;;;;6.10;1.73;;;8.30;99.90;;;;;;5095180;28;20196;-69
2023/01/09 05:01:26;;;;;;;9.90;2.23;;;8.30;99.90;;;;;;5094146;28;20646;-69
2023/01/09 05:03:51;;;;;;;5.13;2.10;;;8.40;99.90;;;;;;5095411;28;20172;-68
2023/01/09 05:06:17;;;;;;;4.80;1.93;;;8.40;99.90;;;;;;5094898;28;20175;-70
2023/01/09 05:08:42;;;;;;;6.00;2.17;;;8.40;99.90;;;;;;5094863;28;20164;-71
2023/01/09 05:11:08;;;;;;;6.20;1.93;;;8.40;99.90;;;;;;5093596;28;20626;-69
2023/01/09 05:13:34;;;;;;;4.77;2.20;;;8.40;99.90;;;;;;5094787;28;20220;-69
2023/01/09 05:15:59;;;;;;;6.63;1.90;;;8.40;99.90;;;;;;5094831;28;20526;-69
2023/01/09 05:18:25;;;;;;;7.63;2.00;;;8.40;99.90;;;;;;5094972;28;20175;-69
2023/01/09 05:20:50;;;;;;;3.63;1.70;;;8.40;99.90;;;;;;5095207;28;20183;-68
2023/01/09 05:23:16;;;;;;;8.97;1.97;;;8.30;99.90;;;;;;5094152;28;20631;-69
2023/01/09 05:25:42;;;;;;;5.53;1.73;;;8.30;99.90;;;;;;5093595;28;20707;-68
2023/01/09 05:28:07;;;;;;;7.47;2.00;;;8.30;99.90;;;;;;5093517;28;20183;-69
2023/01/09 05:30:33;;;;;;;5.83;1.90;;;8.30;99.90;;;;;;5094147;28;20176;-70
2023/01/09 05:32:58;;;;;;;6.30;1.87;;;8.20;99.90;;;;;;5094612;28;20224;-69
2023/01/09 05:35:24;;;;;;;6.80;1.73;;;8.20;99.90;;;;;;5094629;28;20187;-70
2023/01/09 05:37:50;;;;;;;4.43;1.67;;;8.30;99.90;;;;;;5094114;28;20199;-70
2023/01/09 05:40:15;;;;;;;6.67;1.53;;;8.20;99.90;;;;;;5094023;28;20176;-69
2023/01/09 05:42:42;;;;;;;7.10;2.00;;;8.20;99.90;;;;;;5093698;28;20180;-68
2023/01/09 05:45:08;;;;;;;7.43;2.03;;;8.20;99.90;;;;;;5094554;28;20198;-68
2023/01/09 05:47:34;;;;;;;3.90;1.70;;;8.10;99.90;;;;;;5094029;28;20257;-70
2023/01/09 05:50:00;;;;;;;4.47;1.80;;;8.10;99.90;;;;;;5094433;28;20179;-69
2023/01/09 05:52:26;;;;;;;5.77;1.57;;;8.10;99.90;;;;;;5093050;28;20561;-69
2023/01/09 05:54:51;;;;;;;4.37;1.70;;;8.10;99.90;;;;;;5093930;28;20244;-69
2023/01/09 05:57:17;;;;;;;7.77;1.63;;;8.20;99.90;;;;;;5093666;28;20703;-69
2023/01/09 05:59:42;;;;;;;4.27;1.70;;;8.20;99.90;;;;;;5093915;28;20180;-70
2023/01/09 06:02:08;;;;;;;7.30;1.87;;;8.20;99.90;;;;;;5093853;28;20176;-70
2023/01/09 06:04:34;;;;;;;7.73;1.73;;;8.30;99.90;;;;;;5094032;28;20224;-69
2023/01/09 06:06:59;;;;;;;2.50;1.30;;;8.30;99.90;;;;;;5093622;28;20175;-69
2023/01/09 06:09:25;;;;;;;4.80;1.80;;;8.30;99.90;;;;;;5093352;28;20247;-68
2023/01/09 06:11:50;;;;;;;3.27;1.63;;;8.40;99.90;;;;;;5093269;28;20186;-70
2023/01/09 06:14:16;;;;;;;5.73;1.97;;;8.40;99.90;;;;;;5092838;28;20696;-69
2023/01/09 06:16:42;;;;;;;2.77;1.30;;;8.40;99.90;;;;;;5093009;28;20183;-68
2023/01/09 06:19:08;;;;;;;6.03;1.70;;;8.40;99.90;;;;;;5093786;28;20650;-69
2023/01/09 06:21:33;;;;;;;7.70;1.90;;;8.30;99.90;;;;;;5093168;28;20642;-69
2023/01/09 06:23:59;;;;;;;4.17;1.47;;;8.30;99.90;;;;;;5091503;28;20180;-69
2023/01/09 06:26:25;;;;;;;6.67;1.97;;;8.30;99.90;;;;;;5092388;28;20246;-69
2023/01/09 06:28:54;;;;;;;6.27;1.67;;;8.30;99.90;;;;;;5092058;28;20278;-69
2023/01/09 06:31:21;;;;;;;6.03;1.43;;;8.30;99.90;;;;;;5092750;28;20186;-70
2023/01/09 06:33:46;;;;;;;5.83;1.70;;;8.30;99.90;;;;;;5092900;28;20203;-68
2023/01/09 06:36:12;;;;;;;5.70;1.90;;;8.30;99.90;;;;;;5091168;28;20183;-70
2023/01/09 06:38:37;;;;;;;6.57;1.50;;;8.30;99.90;;;;;;5092515;28;20237;-69
2023/01/09 06:41:03;;;;;;;6.77;1.80;;;8.20;99.90;;;;;;5092837;28;20536;-69
2023/01/09 06:43:30;;;;;;;4.70;1.50;;;8.30;99.90;;;;;;5092374;28;20239;-70
2023/01/09 06:45:55;;;;;;;3.87;1.27;;;8.30;99.90;;;;;;5092062;28;20627;-71
2023/01/09 06:48:23;;;;;;;3.27;1.40;;;8.30;99.90;;;;;;5093432;28;20228;-71
2023/01/09 06:50:50;;;;;;;5.57;1.60;;;8.30;99.90;;;;;;5090562;28;20183;-71
2023/01/09 06:53:15;;;;;;;5.00;1.50;;;8.30;99.90;;;;;;5092118;28;20211;-70
2023/01/09 06:55:41;;;;;;;2.93;1.47;;;8.30;99.90;;;;;;5092200;28;20622;-69
2023/01/09 06:58:07;;;;;;;8.73;1.53;;;8.30;99.90;;;;;;5092053;28;20251;-70
2023/01/09 07:00:32;;;;;;;3.90;1.30;;;8.30;99.90;;;;;;5092530;28;20272;-71
2023/01/09 07:02:59;;;;;;;4.60;1.60;;;8.40;99.90;;;;;;5091738;28;20248;-70
2023/01/09 07:05:25;;;;;;;6.10;1.47;;;8.30;99.90;;;;;;5091877;28;20172;-69
2023/01/09 07:07:50;;;;;;;4.07;1.40;;;8.30;99.90;;;;;;5091663;28;20634;-70
2023/01/09 07:10:16;;;;;;;2.77;1.40;;;8.20;99.90;;;;;;5090503;28;20187;-69
2023/01/09 07:12:42;;;;;;;3.03;1.40;;;8.30;99.90;;;;;;5091824;28;20207;-68
2023/01/09 07:15:07;;;;;;;5.33;1.60;;;8.30;99.90;;;;;;5092065;28;20249;-70
2023/01/09 07:17:33;;;;;;;3.37;1.07;;;8.30;99.90;;;;;;5092088;28;20179;-70
2023/01/09 07:19:59;;;;;;;4.23;1.50;;;8.30;99.90;;;;;;5091652;28;20168;-69
2023/01/09 07:22:25;;;;;;;3.37;1.07;;;8.30;99.90;;;;;;5091961;28;20164;-70
2023/01/09 07:24:51;;;;;;;2.67;1.43;;;8.30;99.90;;;;;;5092983;28;20276;-71
2023/01/09 07:27:16;;;;;;;4.47;1.33;;;8.40;99.90;;;;;;5095572;28;20259;-70
2023/01/09 07:29:42;;;;;;;2.53;1.27;;;8.30;99.90;;;;;;5096384;28;20180;-70
2023/01/09 07:32:07;;;;;;;3.13;1.50;;;8.40;99.90;;;;;;5095691;28;20164;-70
2023/01/09 07:34:33;;;;;;;3.63;1.43;;;8.40;99.90;;;;;;5095915;28;20315;-69
2023/01/09 07:36:59;;;;;;;5.53;1.50;;;8.40;99.90;;;;;;5096134;28;20168;-70
2023/01/09 07:39:24;;;;;;;5.57;1.87;;;8.40;99.90;;;;;;5095585;28;20254;-70
2023/01/09 07:41:50;;;;;;;4.13;1.20;;;8.40;99.90;;;;;;5095916;28;20198;-70
2023/01/09 07:44:15;;;;;;;3.50;1.50;;;8.40;99.90;;;;;;5095459;28;20219;-70
2023/01/09 07:46:41;;;;;;;4.90;1.47;;;8.40;99.90;;;;;;5095795;28;20646;-70
2023/01/09 07:49:07;;;;;;;3.43;1.30;;;8.40;99.90;;;;;;5093791;28;20260;-70
2023/01/09 07:51:32;;;;;;;4.90;1.50;;;8.50;99.90;;;;;;5095333;28;20196;-70
2023/01/09 07:53:58;;;;;;;4.83;1.40;;;8.40;99.90;;;;;;5093898;28;20203;-71
2023/01/09 07:56:24;;;;;;;5.00;1.40;;;8.40;99.90;;;;;;5094440;28;20610;-69
2023/01/09 07:58:49;;;;;;;6.53;1.73;;;8.30;99.90;;;;;;5095778;28;20168;-70
2023/01/09 08:01:15;;;;;;;5.47;1.80;;;8.30;99.90;;;;;;5095572;28;20168;-71
2023/01/09 08:03:41;;;;;;;3.50;1.43;;;8.20;99.90;;;;;;5095801;28;20171;-70
2023/01/09 08:06:06;;;;;;;3.27;1.80;;;8.20;99.90;;;;;;5093198;28;20309;-71
2023/01/09 08:08:32;;;;;;;5.27;1.63;;;8.20;99.90;;;;;;5095685;28;20164;-69
2023/01/09 08:10:57;;;;;;;7.37;1.57;;;8.20;99.90;;;;;;5080155;28;20180;-70
2023/01/09 08:13:23;;;;;;;7.33;2.00;;;8.20;99.90;;;;;;5095096;28;20239;-69
2023/01/09 08:15:49;;;;;;;7.40;1.90;;;8.20;99.90;;;;;;5094944;28;20164;-68
2023/01/09 08:18:14;;;;;;;6.43;1.90;;;8.10;99.90;;;;;;5095332;28;20263;-69
2023/01/09 08:20:40;;;;;;;6.27;1.93;;;8.10;99.90;;;;;;5095404;28;20255;-69
2023/01/09 08:23:05;;;;;;;6.00;2.17;;;8.10;99.90;;;;;;5076665;28;20585;-69
2023/01/09 08:25:32;;;;;;;7.77;2.10;;;8.10;99.90;;;;;;5074602;28;20160;-69
2023/01/09 08:27:57;;;;;;;5.63;2.20;;;8.10;99.90;;;;;;5074463;28;20678;-69
2023/01/09 08:30:23;;;;;;;4.73;1.40;;;8.10;99.90;;;;;;5095348;28;20172;-69
2023/01/09 08:32:51;;;;;;;2.73;1.57;;;8.10;99.90;;;;;;5078668;28;20257;-71
2023/01/09 08:35:16;;;;;;;3.43;1.70;;;8.20;99.90;;;;;;5095179;28;20179;-69
2023/01/09 08:37:44;;;;;;;7.60;2.07;;;8.20;99.90;;;;;;5088278;28;20271;-70
2023/01/09 08:40:10;;;;;;;2.13;1.30;;;8.20;99.90;;;;;;5094017;28;20222;-71
2023/01/09 08:48:04;;;;;;;5.80;1.67;;;8.20;99.90;;;;;;5094810;28;20179;-69
2023/01/09 08:50:33;;;;;;;3.67;1.60;;;8.20;99.90;;;;;;5095264;28;20231;-69
2023/01/09 08:52:59;;;;;;;3.13;1.53;;;8.30;99.90;;;;;;5074677;28;20338;-69
2023/01/09 08:55:25;;;;;;;1.23;1.03;;;8.30;99.90;;;;;;5074047;28;20532;-68
2023/01/09 08:57:52;;;;;;;2.47;1.07;;;8.20;99.90;;;;;;5091055;28;20190;-69
2023/01/09 09:00:20;;;;;;;2.37;1.20;;;8.20;99.90;;;;;;5090628;28;20210;-69
2023/01/09 09:02:53;;;;;;;2.77;1.40;;;8.10;99.90;;;;;;5074095;28;20176;-70
2023/01/09 09:05:19;;;;;;;0.67;0.67;;;8.20;99.90;;;;;;5080633;28;20184;-70
2023/01/09 09:07:47;;;;;;;2.27;0.80;;;8.10;99.90;;;;;;5079431;28;20656;-70
2023/01/09 09:10:14;;;;;;;4.67;1.17;;;8.10;99.90;;;;;;5074139;28;20176;-70
2023/01/09 09:12:39;;;;;;;2.63;1.20;;;8.10;99.90;;;;;;5073742;28;20216;-69
2023/01/09 09:15:12;;;;;;;2.43;1.03;;;8.10;99.90;;;;;;5073843;28;20258;-69
2023/01/09 09:17:39;;;;;;;0.90;0.87;;;8.20;99.90;;;;;;5074509;28;20267;-70
2023/01/09 09:20:06;;;;;;;3.33;1.00;;;8.20;99.90;;;;;;5073919;28;20165;-69
2023/01/09 09:22:32;;;;;;;1.77;1.10;;;8.20;99.90;;;;;;5074038;28;20180;-69
2023/01/09 09:24:57;;;;;;;2.33;1.30;;;8.20;99.90;;;;;;5072140;28;20195;-68
2023/01/09 09:27:23;;;;;;;5.43;1.37;;;8.20;99.90;;;;;;5086739;28;20208;-69
2023/01/09 09:29:49;;;;;;;2.07;1.20;;;8.20;99.90;;;;;;5074201;28;20612;-69
2023/01/09 09:32:14;;;;;;;2.60;1.00;;;8.30;99.90;;;;;;5081260;28;20249;-70
2023/01/09 09:34:40;;;;;;;3.30;1.03;;;8.30;99.90;;;;;;5093860;28;20168;-70
2023/01/09 09:37:06;;;;;;;2.30;1.20;;;8.30;99.90;;;;;;5078255;28;20191;-70
2023/01/09 09:39:31;;;;;;;1.17;1.00;;;8.20;99.90;;;;;;5073685;28;20173;-69
2023/01/09 09:45:28;;;;;;;2.17;1.13;;;8.20;99.90;;;;;;5093725;28;20277;-69
2023/01/09 09:48:24;;;;;;;3.07;1.30;;;8.20;99.90;;;;;;5074890;28;20666;-69
2023/01/09 09:50:50;;;;;;;1.97;1.10;;;8.20;99.90;;;;;;5074392;28;20173;-69
2023/01/09 09:53:48;;;;;;;2.53;1.10;;;8.30;99.90;;;;;;5093577;28;20560;-68
2023/01/09 09:56:17;;;;;;;1.67;1.00;;;8.30;99.90;;;;;;5041247;28;20255;-68
2023/01/09 09:58:51;;;;;;;2.20;1.10;;;8.30;99.90;;;;;;5074171;28;20227;-70
2023/01/09 10:01:38;;;;;;;3.60;1.10;;;8.30;99.90;;;;;;5075422;28;20176;-69
2023/01/09 10:04:13;;;;;;;4.97;1.43;;;8.20;99.90;;;;;;5073662;28;20579;-68
2023/01/09 10:06:44;;;;;;;1.47;0.77;;;8.20;99.90;;;;;;5073462;28;20643;-69
2023/01/09 10:09:41;;;;;;;3.37;1.00;;;8.20;99.90;;;;;;5072771;28;20257;-68
2023/01/09 10:12:07;;;;;;;1.37;1.10;;;8.20;99.90;;;;;;5092738;28;20198;-68
2023/01/09 10:14:32;;;;;;;3.20;1.10;;;8.30;99.90;;;;;;5088644;28;20644;-68
2023/01/09 10:17:06;;;;;;;6.43;1.40;;;8.40;99.90;;;;;;5073240;28;20627;-70
2023/01/09 10:19:50;;;;;;;5.10;1.17;;;8.40;99.90;;;;;;5073150;28;20175;-69
2023/01/09 10:22:41;;;;;;;1.70;0.87;;;8.50;99.90;;;;;;5081824;28;20180;-69
2023/01/09 10:25:22;;;;;;;2.97;1.17;;;8.40;99.90;;;;;;5073406;28;20177;-69
2023/01/09 10:27:56;;;;;;;3.43;1.23;;;8.40;99.90;;;;;;5089005;28;20176;-70
2023/01/09 10:30:47;;;;;;;1.77;1.10;;;8.50;99.90;;;;;;5089924;28;20321;-70
2023/01/09 10:33:25;;;;;;;3.63;1.40;;;8.40;99.90;;;;;;5072395;28;20196;-70
2023/01/09 10:36:22;;;;;;;1.10;1.00;;;8.50;99.90;;;;;;5071297;28;20173;-68
2023/01/09 10:38:52;;;;;;;1.20;1.00;;;8.40;99.90;;;;;;5071068;28;20168;-69
2023/01/09 10:41:26;;;;;;;4.20;1.20;;;8.30;99.90;;;;;;5074316;28;20171;-69
2023/01/09 10:44:06;;;;;;;2.10;0.90;;;8.20;99.90;;;;;;5089278;28;20273;-69
2023/01/09 10:46:43;;;;;;;1.17;1.07;;;8.30;99.90;;;;;;5092463;28;20176;-70
2023/01/09 10:49:16;;;;;;;2.53;1.60;;;8.40;99.90;;;;;;5092773;28;20162;-69
2023/01/09 10:52:04;;;;;;;1.93;1.27;;;8.40;99.90;;;;;;5093311;28;20484;-69
2023/01/09 10:54:30;;;;;;;2.93;1.50;;;8.40;99.90;;;;;;5093063;28;20219;-69
2023/01/09 10:57:20;;;;;;;2.27;1.20;;;8.40;99.90;;;;;;5091812;28;20659;-70
2023/01/09 10:59:45;;;;;;;2.67;1.67;;;8.40;99.90;;;;;;5076945;28;20184;-69
2023/01/09 11:02:29;;;;;;;2.43;1.23;;;8.40;99.90;;;;;;5092566;28;20520;-69
2023/01/09 11:04:55;;;;;;;3.73;1.37;;;8.40;99.90;;;;;;5091217;28;20184;-70
2023/01/09 11:07:41;;;;;;;1.60;1.17;;;8.40;99.90;;;;;;5091020;28;20613;-69
2023/01/09 11:10:10;;;;;;;1.50;1.30;;;8.50;99.90;;;;;;5092030;28;20167;-69
2023/01/09 11:12:37;;;;;;;2.00;1.30;;;8.50;99.90;;;;;;5091828;28;20179;-69
2023/01/09 11:15:15;;;;;;;3.20;1.47;;;8.50;99.90;;;;;;5092329;28;20262;-69
2023/01/09 11:17:41;;;;;;;2.70;1.30;;;8.50;99.90;;;;;;5092544;28;20176;-69
2023/01/09 11:20:26;;;;;;;1.90;1.40;;;8.50;99.90;;;;;;5092652;28;20183;-69
2023/01/09 11:22:54;;;;;;;3.30;1.50;;;8.50;99.90;;;;;;5092340;28;20171;-69
2023/01/09 11:25:22;;;;;;;2.63;1.57;;;8.40;99.90;;;;;;5092335;28;20194;-70
2023/01/09 11:28:08;;;;;;;2.47;1.60;;;8.50;99.90;;;;;;5091972;28;20176;-68
2023/01/09 11:30:53;;;;;;;4.00;1.77;;;8.50;99.90;;;;;;5092674;28;20179;-68
2023/01/09 11:33:41;;;;;;;3.10;1.80;;;8.60;99.90;;;;;;5092101;28;20199;-70
2023/01/09 11:36:14;;;;;;;6.13;1.97;;;8.70;99.90;;;;;;5087867;28;20167;-70
2023/01/09 11:38:51;;;;;;;10.87;8.03;;;8.60;99.90;;;;;;5074033;28;20180;-69
2023/01/09 11:41:23;;;;;;;2.60;1.97;;;8.60;99.90;;;;;;5070280;28;20180;-69
2023/01/09 11:43:54;;;;;;;8.50;5.43;;;8.60;99.90;;;;;;5072105;28;20231;-69
2023/01/09 11:46:31;;;;;;;3.77;1.77;;;8.70;99.90;;;;;;5071848;28;20563;-69
2023/01/09 11:48:58;;;;;;;6.93;3.77;;;8.60;99.90;;;;;;5071734;28;20173;-69
2023/01/09 11:51:30;;;;;;;21.10;13.83;;;8.60;99.90;;;;;;5074820;28;20191;-69
2023/01/09 11:54:24;;;;;;;7.57;4.73;;;8.80;99.90;;;;;;5071387;28;20216;-69
2023/01/09 11:56:50;;;;;;;10.27;6.27;;;8.80;99.90;;;;;;5091795;28;20232;-71
2023/01/09 11:59:21;;;;;;;27.83;17.43;;;8.80;99.90;;;;;;5092096;28;20289;-68
2023/01/09 12:02:24;;;;;;;13.30;8.20;;;8.70;99.90;;;;;;5092351;28;20200;-70
2023/01/09 12:04:58;;;;;;;4.27;1.97;;;9.00;99.90;;;;;;5089926;28;20182;-69
2023/01/09 12:07:24;;;;;;;4.17;2.00;;;9.10;99.90;;;;;;5090720;28;20180;-70
2023/01/09 12:10:01;;;;;;;8.87;6.60;;;9.10;99.90;;;;;;5090884;28;20164;-70
2023/01/09 12:12:37;;;;;;;4.83;4.43;;;9.10;99.90;;;;;;5088129;28;20655;-69
2023/01/09 12:15:33;;;;;;;8.47;6.83;;;9.10;99.90;;;;;;5075538;28;20208;-70
2023/01/09 12:18:35;;;;;;;4.77;2.17;;;9.10;99.90;;;;;;5079081;28;20177;-70
2023/01/09 12:21:15;;;;;;;9.00;8.00;;;9.00;99.90;;;;;;5079638;28;20179;-69
2023/01/09 12:23:50;;;;;;;4.13;2.83;;;8.90;99.90;;;;;;5082368;28;20190;-69
2023/01/09 12:26:18;;;;;;;6.60;2.80;;;9.10;99.90;;;;;;5087608;28;20176;-70
2023/01/09 12:29:19;;;;;;;27.07;21.60;;;9.10;99.90;;;;;;5087094;28;20183;-68
2023/01/09 12:32:22;;;;;;;9.80;7.10;;;9.10;99.90;;;;;;5059933;28;20187;-70
2023/01/09 12:35:08;;;;;;;6.87;2.50;;;9.10;99.90;;;;;;5095606;28;20199;-69
2023/01/09 12:38:20;;;;;;;3.47;2.40;;;9.10;99.90;;;;;;5094330;28;20179;-68
2023/01/09 12:40:58;;;;;;;6.80;3.67;;;9.30;99.90;;;;;;5080432;28;20182;-70
2023/01/09 12:43:29;;;;;;;26.33;16.67;;;9.60;99.90;;;;;;5091493;28;20230;-69
2023/01/09 12:46:04;;;;;;;21.50;12.30;;;9.80;99.90;;;;;;5084201;28;20203;-69
2023/01/09 12:49:21;;;;;;;7.60;6.37;;;9.80;99.90;;;;;;5094945;28;20167;-70
2023/01/09 12:52:09;;;;;;;12.90;11.43;;;9.90;99.90;;;;;;5061327;28;20217;-70
2023/01/09 12:54:46;;;;;;;13.63;10.50;;;9.90;99.90;;;;;;5094591;28;20257;-69
2023/01/09 12:57:27;;;;;;;8.87;5.23;;;9.80;99.90;;;;;;5094355;28;20458;-69
2023/01/09 13:00:03;;;;;;;7.97;4.17;;;9.80;99.90;;;;;;5083803;28;20184;-70
2023/01/09 13:02:47;;;;;;;10.67;5.93;;;9.90;99.90;;;;;;5080845;28;20271;-68
2023/01/09 13:05:35;;;;;;;9.97;3.97;;;10.00;99.90;;;;;;5074468;28;20161;-69
2023/01/09 13:08:38;;;;;;;12.47;2.90;;;10.00;99.90;;;;;;5072777;28;20172;-70
2023/01/09 13:11:46;;;;;;;5.43;3.07;;;10.10;99.90;;;;;;5063384;28;20203;-69
2023/01/09 13:14:29;;;;;;;6.60;2.50;;;10.10;99.90;;;;;;5077146;28;20223;-69
2023/01/09 13:16:57;;;;;;;7.30;3.27;;;10.20;99.90;;;;;;5074512;28;20248;-69
2023/01/09 13:19:41;;;;;;;4.40;2.80;;;10.30;99.90;;;;;;5092468;28;20212;-70
2023/01/09 13:22:07;;;;;;;6.17;2.40;;;10.20;99.90;;;;;;5093359;28;20168;-70
2023/01/09 13:24:43;;;;;;;10.20;2.73;;;10.00;99.90;;;;;;5093888;28;20179;-69
2023/01/09 13:27:13;;;;;;;17.10;9.17;;;10.10;99.90;;;;;;5093788;28;20163;-69
2023/01/09 13:29:42;;;;;;;6.03;3.17;;;10.30;99.90;;;;;;5082095;28;20188;-70